Terminal Aerodrome Forecast
Issued by NWS

Home | Current Version | Previous Version | Text Only | Print | Product List | Glossary On
Versions: 1 2 3 4 5 6 7 8 9 10 11 12 13 14 15 16 17 18 19 20 21 22 23 24 25 26 27 28
730
FTAK31 PANC 091738
TAFADL
TAF
PADL 091738Z 0918/1018 08011KT P6SM SCT050
     FM092100 02011KT P6SM SCT030 BKN080 WS020/12025KT
     FM100600 36015G25KT P6SM SCT200 WS020/08037KT=

USA.gov is the U.S. government's official web portal to all federal, state and local government web resources and services.